Stolt Shearwater — ZCRD9 — position and weather

sailwx.info

Track history (hours):
 
Tides and Currents Weather Stations Pressure Air Temp Water Temp Dewpoint Dewpoint Depression Visibility Wind Speed Wind Dir Waves Ship Positions

Stolt Shearwater

Last reported at 2014-Oct-30 19:32 UTC. Time now 2014-Oct-31 11:27 UTC.
Position N 50°05' W 003°38'.

Length 96 m; draft 6.3 m.

Type: Ship. MMSI: 319402000.

Date/timePositionNaut miles runAvg speedWind from/ knotsBaromVisibWave heightAir tempDewpointWater temp
2014-Oct-30 19:32N 50°05' W 003°38'1110.8
2014-Oct-30 18:33N 50°07' W 003°21'1111.1
2014-Oct-30 17:32N 50°09' W 003°04'1111.2
2014-Oct-30 16:33N 50°11' W 002°47'1110.5
2014-Oct-30 15:34N 50°13' W 002°31'10 9.6
2014-Oct-30 14:30N 50°15' W 002°16'64 8.7
2014-Oct-30 07:11N 50°27' W 000°38'711.6
2014-Oct-30 06:33N 50°29' W 000°26'2311.1
2014-Oct-30 04:30N 50°34' E 000°09'1010.4
2014-Oct-30 03:33N 50°36' E 000°24'10 9.6
2014-Oct-30 02:33N 50°40' E 000°38'9 9.4
2014-Oct-30 01:33N 50°45' E 000°50'10 9.6
2014-Oct-30 00:34N 50°51' E 001°02'1110.7
2014-Oct-29 23:34N 50°57' E 001°15'1212.4
2014-Oct-29 22:33N 51°05' E 001°30'1312.6
2014-Oct-29 21:33N 51°14' E 001°45'1111.0
2014-Oct-29 20:33N 51°23' E 001°54'10 9.8
2014-Oct-29 19:33N 51°31' E 002°03'9 9.2
2014-Oct-29 18:34N 51°38' E 002°13'57 9.0
2014-Oct-29 12:18N 52°03' E 003°35'810.7
2014-Oct-29 11:33N 52°03' E 003°48'1010.4
2014-Oct-29 10:34N 51°59' E 004°03'1212.1
2014-Oct-29 09:33N 51°53' E 004°20'8 7.7
2014-Oct-29 08:33N 51°50' E 004°31'5 4.8
2014-Oct-29 07:33N 51°47' E 004°38'0 0.0
2014-Oct-29 06:27N 51°47' E 004°38'0 0.0
2014-Oct-29 05:30N 51°47' E 004°38'0 0.0
2014-Oct-29 04:33N 51°47' E 004°38'0 0.0
2014-Oct-29 03:33N 51°47' E 004°38'0 0.0
2014-Oct-29 02:30N 51°47' E 004°38'0 0.0
2014-Oct-29 01:30N 51°47' E 004°38'0 0.0
2014-Oct-29 00:33N 51°47' E 004°38'0 0.0
2014-Oct-28 23:30N 51°47' E 004°38'0 0.0
2014-Oct-28 22:30N 51°47' E 004°38'0 0.0
2014-Oct-28 21:33N 51°47' E 004°38'0 0.0
2014-Oct-28 20:33N 51°47' E 004°38'0 0.0
2014-Oct-28 19:33N 51°47' E 004°38'0 0.0
2014-Oct-28 18:27N 51°47' E 004°38'0 0.0
2014-Oct-28 17:33N 51°47' E 004°38'0 0.0
2014-Oct-28 16:33N 51°47' E 004°38'0 0.0
2014-Oct-28 15:33N 51°47' E 004°38'0 0.0
2014-Oct-28 14:33N 51°47' E 004°38'0 0.0
2014-Oct-28 13:33N 51°47' E 004°38'0 0.0
2014-Oct-28 12:33N 51°47' E 004°38'0 0.0
2014-Oct-28 11:27N 51°47' E 004°38'0 0.0
2014-Oct-28 10:24N 51°47' E 004°38'0 0.0
2014-Oct-28 09:30N 51°47' E 004°38'0 0.0
2014-Oct-28 08:33N 51°47' E 004°38'0 0.0
2014-Oct-28 07:33N 51°47' E 004°38'0 0.0
2014-Oct-28 06:33N 51°47' E 004°38'0 0.0
2014-Oct-28 05:34N 51°47' E 004°38'0 0.0
2014-Oct-28 04:34N 51°47' E 004°38'5 4.8
2014-Oct-28 03:34N 51°50' E 004°32'9 8.7
2014-Oct-28 02:33N 51°54' E 004°19'2 1.3
2014-Oct-28 01:07N 51°53' E 004°16'0 0.0
2014-Oct-27 21:31N 51°53' E 004°16'0 0.0
2014-Oct-27 16:13N 51°53' E 004°16'0 0.0
2014-Oct-27 15:13N 51°53' E 004°16'0 0.0
2014-Oct-27 09:10N 51°53' E 004°16'0 0.0
2014-Oct-27 03:10N 51°53' E 004°16'0 0.0
2014-Oct-27 02:16N 51°53' E 004°16'0 0.0
2014-Oct-27 01:16N 51°53' E 004°16'0 0.0
2014-Oct-26 17:16N 51°53' E 004°16'0 0.0
2014-Oct-26 05:28N 51°53' E 004°16'0 0.0
2014-Oct-26 03:22N 51°53' E 004°16'0 0.2
2014-Oct-26 02:33N 51°52' E 004°16'0 0.0
2014-Oct-26 01:33N 51°52' E 004°16'0 0.0
2014-Oct-26 00:33N 51°52' E 004°16'0 0.0
2014-Oct-25 23:30N 51°52' E 004°16'0 0.0
2014-Oct-25 22:33N 51°52' E 004°16'0 0.0
2014-Oct-25 21:12N 51°52' E 004°16'0 0.0
2014-Oct-25 20:33N 51°52' E 004°16'0 0.0
2014-Oct-25 19:33N 51°52' E 004°16'0 0.0
2014-Oct-25 18:24N 51°52' E 004°16'0 0.0
2014-Oct-25 17:33N 51°52' E 004°16'0 0.0
2014-Oct-25 16:33N 51°52' E 004°16'0 0.0
2014-Oct-25 15:30N 51°52' E 004°16'0 0.0
2014-Oct-25 14:30N 51°52' E 004°16'0 0.0
2014-Oct-25 13:27N 51°52' E 004°16'0 0.0
2014-Oct-25 12:27N 51°52' E 004°16'0 0.0
2014-Oct-25 11:33N 51°52' E 004°16'0 0.0
2014-Oct-25 10:33N 51°52' E 004°16'0 0.0
2014-Oct-25 09:33N 51°52' E 004°16'0 0.0
2014-Oct-25 08:30N 51°52' E 004°16'0 0.0
2014-Oct-25 07:30N 51°52' E 004°16'0 0.0
2014-Oct-25 06:33N 51°52' E 004°16'0 0.0
2014-Oct-25 05:30N 51°52' E 004°16'0 0.0
2014-Oct-25 04:30N 51°52' E 004°16'0 0.0
2014-Oct-25 03:33N 51°52' E 004°16'0 0.5
2014-Oct-25 02:33N 51°53' E 004°17'1 1.0
2014-Oct-25 01:25N 51°53' E 004°18'0 0.0
2014-Oct-25 00:31N 51°53' E 004°18'0 0.0
2014-Oct-24 23:31N 51°53' E 004°18'0 0.0
2014-Oct-24 22:25N 51°53' E 004°18'0 0.0
2014-Oct-24 20:19N 51°53' E 004°18'0 0.0
2014-Oct-24 19:25N 51°53' E 004°18'0 0.0
2014-Oct-24 18:25N 51°53' E 004°18'0 0.0
2014-Oct-24 17:25N 51°53' E 004°18'0 0.0
2014-Oct-24 16:31N 51°53' E 004°18'0 0.0
2014-Oct-24 15:28N 51°53' E 004°18'0 0.0
2014-Oct-24 14:10N 51°53' E 004°18'0 0.0
2014-Oct-24 13:13N 51°53' E 004°18'0 0.0
2014-Oct-24 12:31N 51°53' E 004°18'2 1.7
2014-Oct-24 11:33N 51°54' E 004°17'9 8.8
2014-Oct-24 10:33N 51°59' E 004°05'9 9.3
2014-Oct-24 09:33N 52°02' E 003°50'8 7.6
2014-Oct-24 08:33N 52°09' E 003°46'9 9.3
2014-Oct-24 07:33N 52°18' E 003°47'37 7.3
2014-Oct-24 02:32N 52°54' E 003°59'6 5.8
2014-Oct-24 01:32N 52°59' E 004°04'41 7.9
2014-Oct-23 20:20N 53°30' E 004°48'6 7.8
2014-Oct-23 19:33N 53°32' E 004°58'7 7.5
2014-Oct-23 18:33N 53°35' E 005°10'7 7.4
2014-Oct-23 17:33N 53°38' E 005°22'7 7.3
2014-Oct-23 16:33N 53°40' E 005°33'8 8.1
2014-Oct-23 15:33N 53°43' E 005°46'9 9.4
2014-Oct-23 14:33N 53°46' E 006°01'53 8.6
2014-Oct-23 08:21N 53°60' E 007°29'5 6.8
2014-Oct-23 07:33N 54°01' E 007°38'8 7.7
2014-Oct-23 06:33N 54°01' E 007°51'8 8.6
2014-Oct-23 05:33N 54°01' E 008°05'10 9.9
2014-Oct-23 04:33N 53°60' E 008°22'1313.3
2014-Oct-23 03:33N 53°54' E 008°42'1312.6
2014-Oct-23 02:32N 53°52' E 009°03'13 9.3
2014-Oct-23 01:08N 53°47' E 009°23'5 8.9
2014-Oct-23 00:33N 53°43' E 009°29'4 0.1
2014-Oct-21 10:08N 53°39' E 009°31'3 5.4
2014-Oct-21 09:34N 53°42' E 009°29'1313.3
2014-Oct-21 08:33N 53°52' E 009°15'3 3.0
2014-Oct-21 07:30N 53°53' E 009°10'0 0.1
2014-Oct-21 06:30N 53°53' E 009°10'0 0.0
2014-Oct-21 05:27N 53°53' E 009°10'0 0.0
2014-Oct-21 04:33N 53°53' E 009°10'0 0.0
2014-Oct-21 03:33N 53°53' E 009°10'0 0.0
2014-Oct-21 02:33N 53°53' E 009°10'0 0.0
2014-Oct-21 01:33N 53°53' E 009°10'0 0.1
2014-Oct-21 00:33N 53°53' E 009°10'0 0.1
2014-Oct-20 23:30N 53°53' E 009°10'0 0.0
2014-Oct-20 22:33N 53°53' E 009°10'0 0.0
2014-Oct-20 21:33N 53°53' E 009°10'0 0.0
2014-Oct-20 20:33N 53°53' E 009°10'0 0.0
2014-Oct-20 19:33N 53°53' E 009°10'  
Track history (hours):
 
Tides and Currents Weather Stations Pressure Air Temp Water Temp Dewpoint Dewpoint Depression Visibility Wind Speed Wind Dir Waves Ship Positions

Stolt Shearwater

Last reported at 2014-Oct-30 19:32 UTC. Time now 2014-Oct-31 11:27 UTC.
Position N 50°05' W 003°38'.

Length 96 m; draft 6.3 m.

Type: Ship. MMSI: 319402000.

Date/timePositionNaut miles runAvg speedWind from/ knotsBaromVisibWave heightAir tempDewpointWater temp
2014-Oct-30 19:32N 50°05' W 003°38'1110.8
2014-Oct-30 18:33N 50°07' W 003°21'1111.1
2014-Oct-30 17:32N 50°09' W 003°04'1111.2
2014-Oct-30 16:33N 50°11' W 002°47'1110.5
2014-Oct-30 15:34N 50°13' W 002°31'10 9.6
2014-Oct-30 14:30N 50°15' W 002°16'64 8.7
2014-Oct-30 07:11N 50°27' W 000°38'711.6
2014-Oct-30 06:33N 50°29' W 000°26'2311.1
2014-Oct-30 04:30N 50°34' E 000°09'1010.4
2014-Oct-30 03:33N 50°36' E 000°24'10 9.6
2014-Oct-30 02:33N 50°40' E 000°38'9 9.4
2014-Oct-30 01:33N 50°45' E 000°50'10 9.6
2014-Oct-30 00:34N 50°51' E 001°02'1110.7
2014-Oct-29 23:34N 50°57' E 001°15'1212.4
2014-Oct-29 22:33N 51°05' E 001°30'1312.6
2014-Oct-29 21:33N 51°14' E 001°45'1111.0
2014-Oct-29 20:33N 51°23' E 001°54'10 9.8
2014-Oct-29 19:33N 51°31' E 002°03'9 9.2
2014-Oct-29 18:34N 51°38' E 002°13'57 9.0
2014-Oct-29 12:18N 52°03' E 003°35'810.7
2014-Oct-29 11:33N 52°03' E 003°48'1010.4
2014-Oct-29 10:34N 51°59' E 004°03'1212.1
2014-Oct-29 09:33N 51°53' E 004°20'8 7.7
2014-Oct-29 08:33N 51°50' E 004°31'5 4.8
2014-Oct-29 07:33N 51°47' E 004°38'0 0.0
2014-Oct-29 06:27N 51°47' E 004°38'0 0.0
2014-Oct-29 05:30N 51°47' E 004°38'0 0.0
2014-Oct-29 04:33N 51°47' E 004°38'0 0.0
2014-Oct-29 03:33N 51°47' E 004°38'0 0.0
2014-Oct-29 02:30N 51°47' E 004°38'0 0.0
2014-Oct-29 01:30N 51°47' E 004°38'0 0.0
2014-Oct-29 00:33N 51°47' E 004°38'0 0.0
2014-Oct-28 23:30N 51°47' E 004°38'0 0.0
2014-Oct-28 22:30N 51°47' E 004°38'0 0.0
2014-Oct-28 21:33N 51°47' E 004°38'0 0.0
2014-Oct-28 20:33N 51°47' E 004°38'0 0.0
2014-Oct-28 19:33N 51°47' E 004°38'0 0.0
2014-Oct-28 18:27N 51°47' E 004°38'0 0.0
2014-Oct-28 17:33N 51°47' E 004°38'0 0.0
2014-Oct-28 16:33N 51°47' E 004°38'0 0.0
2014-Oct-28 15:33N 51°47' E 004°38'0 0.0
2014-Oct-28 14:33N 51°47' E 004°38'0 0.0
2014-Oct-28 13:33N 51°47' E 004°38'0 0.0
2014-Oct-28 12:33N 51°47' E 004°38'0 0.0
2014-Oct-28 11:27N 51°47' E 004°38'0 0.0
2014-Oct-28 10:24N 51°47' E 004°38'0 0.0
2014-Oct-28 09:30N 51°47' E 004°38'0 0.0
2014-Oct-28 08:33N 51°47' E 004°38'0 0.0
2014-Oct-28 07:33N 51°47' E 004°38'0 0.0
2014-Oct-28 06:33N 51°47' E 004°38'0 0.0
2014-Oct-28 05:34N 51°47' E 004°38'0 0.0
2014-Oct-28 04:34N 51°47' E 004°38'5 4.8
2014-Oct-28 03:34N 51°50' E 004°32'9 8.7
2014-Oct-28 02:33N 51°54' E 004°19'2 1.3
2014-Oct-28 01:07N 51°53' E 004°16'0 0.0
2014-Oct-27 21:31N 51°53' E 004°16'0 0.0
2014-Oct-27 16:13N 51°53' E 004°16'0 0.0
2014-Oct-27 15:13N 51°53' E 004°16'0 0.0
2014-Oct-27 09:10N 51°53' E 004°16'0 0.0
2014-Oct-27 03:10N 51°53' E 004°16'0 0.0
2014-Oct-27 02:16N 51°53' E 004°16'0 0.0
2014-Oct-27 01:16N 51°53' E 004°16'0 0.0
2014-Oct-26 17:16N 51°53' E 004°16'0 0.0
2014-Oct-26 05:28N 51°53' E 004°16'0 0.0
2014-Oct-26 03:22N 51°53' E 004°16'0 0.2
2014-Oct-26 02:33N 51°52' E 004°16'0 0.0
2014-Oct-26 01:33N 51°52' E 004°16'0 0.0
2014-Oct-26 00:33N 51°52' E 004°16'0 0.0
2014-Oct-25 23:30N 51°52' E 004°16'0 0.0
2014-Oct-25 22:33N 51°52' E 004°16'0 0.0
2014-Oct-25 21:12N 51°52' E 004°16'0 0.0
2014-Oct-25 20:33N 51°52' E 004°16'0 0.0
2014-Oct-25 19:33N 51°52' E 004°16'0 0.0
2014-Oct-25 18:24N 51°52' E 004°16'0 0.0
2014-Oct-25 17:33N 51°52' E 004°16'0 0.0
2014-Oct-25 16:33N 51°52' E 004°16'0 0.0
2014-Oct-25 15:30N 51°52' E 004°16'0 0.0
2014-Oct-25 14:30N 51°52' E 004°16'0 0.0
2014-Oct-25 13:27N 51°52' E 004°16'0 0.0
2014-Oct-25 12:27N 51°52' E 004°16'0 0.0
2014-Oct-25 11:33N 51°52' E 004°16'0 0.0
2014-Oct-25 10:33N 51°52' E 004°16'0 0.0
2014-Oct-25 09:33N 51°52' E 004°16'0 0.0
2014-Oct-25 08:30N 51°52' E 004°16'0 0.0
2014-Oct-25 07:30N 51°52' E 004°16'0 0.0
2014-Oct-25 06:33N 51°52' E 004°16'0 0.0
2014-Oct-25 05:30N 51°52' E 004°16'0 0.0
2014-Oct-25 04:30N 51°52' E 004°16'0 0.0
2014-Oct-25 03:33N 51°52' E 004°16'0 0.5
2014-Oct-25 02:33N 51°53' E 004°17'1 1.0
2014-Oct-25 01:25N 51°53' E 004°18'0 0.0
2014-Oct-25 00:31N 51°53' E 004°18'0 0.0
2014-Oct-24 23:31N 51°53' E 004°18'0 0.0
2014-Oct-24 22:25N 51°53' E 004°18'0 0.0
2014-Oct-24 20:19N 51°53' E 004°18'0 0.0
2014-Oct-24 19:25N 51°53' E 004°18'0 0.0
2014-Oct-24 18:25N 51°53' E 004°18'0 0.0
2014-Oct-24 17:25N 51°53' E 004°18'0 0.0
2014-Oct-24 16:31N 51°53' E 004°18'0 0.0
2014-Oct-24 15:28N 51°53' E 004°18'0 0.0
2014-Oct-24 14:10N 51°53' E 004°18'0 0.0
2014-Oct-24 13:13N 51°53' E 004°18'0 0.0
2014-Oct-24 12:31N 51°53' E 004°18'2 1.7
2014-Oct-24 11:33N 51°54' E 004°17'9 8.8
2014-Oct-24 10:33N 51°59' E 004°05'9 9.3
2014-Oct-24 09:33N 52°02' E 003°50'8 7.6
2014-Oct-24 08:33N 52°09' E 003°46'9 9.3
2014-Oct-24 07:33N 52°18' E 003°47'37 7.3
2014-Oct-24 02:32N 52°54' E 003°59'6 5.8
2014-Oct-24 01:32N 52°59' E 004°04'41 7.9
2014-Oct-23 20:20N 53°30' E 004°48'6 7.8
2014-Oct-23 19:33N 53°32' E 004°58'7 7.5
2014-Oct-23 18:33N 53°35' E 005°10'7 7.4
2014-Oct-23 17:33N 53°38' E 005°22'7 7.3
2014-Oct-23 16:33N 53°40' E 005°33'8 8.1
2014-Oct-23 15:33N 53°43' E 005°46'9 9.4
2014-Oct-23 14:33N 53°46' E 006°01'53 8.6
2014-Oct-23 08:21N 53°60' E 007°29'5 6.8
2014-Oct-23 07:33N 54°01' E 007°38'8 7.7
2014-Oct-23 06:33N 54°01' E 007°51'8 8.6
2014-Oct-23 05:33N 54°01' E 008°05'10 9.9
2014-Oct-23 04:33N 53°60' E 008°22'1313.3
2014-Oct-23 03:33N 53°54' E 008°42'1312.6
2014-Oct-23 02:32N 53°52' E 009°03'13 9.3
2014-Oct-23 01:08N 53°47' E 009°23'5 8.9
2014-Oct-23 00:33N 53°43' E 009°29'4 0.1
2014-Oct-21 10:08N 53°39' E 009°31'3 5.4
2014-Oct-21 09:34N 53°42' E 009°29'1313.3
2014-Oct-21 08:33N 53°52' E 009°15'3 3.0
2014-Oct-21 07:30N 53°53' E 009°10'0 0.1
2014-Oct-21 06:30N 53°53' E 009°10'0 0.0
2014-Oct-21 05:27N 53°53' E 009°10'0 0.0
2014-Oct-21 04:33N 53°53' E 009°10'0 0.0
2014-Oct-21 03:33N 53°53' E 009°10'0 0.0
2014-Oct-21 02:33N 53°53' E 009°10'0 0.0
2014-Oct-21 01:33N 53°53' E 009°10'0 0.1
2014-Oct-21 00:33N 53°53' E 009°10'0 0.1
2014-Oct-20 23:30N 53°53' E 009°10'0 0.0
2014-Oct-20 22:33N 53°53' E 009°10'0 0.0
2014-Oct-20 21:33N 53°53' E 009°10'0 0.0
2014-Oct-20 20:33N 53°53' E 009°10'0 0.0
2014-Oct-20 19:33N 53°53' E 009°10'  

Dump ship's entire track history